Time;durP1;ratioP1;P1;durP2;ratioP2;P2;SDS_P1;SDS_P2;PMS_P1;PMS_P2;Temp;Humidity;BMP_temperature;BMP_pressure;BME280_temperature;BME280_humidity;BME280_pressure;Samples;Min_cycle;Max_cycle;Signal;HPM_P1;HPM_P2
2021/08/30 00:01:36;;;;;;;18.90;14.33;;;;;;;24.66;54.54;99980.80;1746273;81;21252;-46
2021/08/30 00:04:03;;;;;;;18.10;13.93;;;;;;;24.65;54.63;99981.42;1743455;81;21053;-45
2021/08/30 00:06:29;;;;;;;17.27;13.60;;;;;;;24.66;54.63;99993.33;1745821;80;21080;-46
2021/08/30 00:08:55;;;;;;;18.00;12.85;;;;;;;24.64;54.68;99993.70;1742889;80;21859;-46
2021/08/30 00:11:21;;;;;;;17.27;13.60;;;;;;;24.65;54.75;99985.59;1744896;81;20899;-45
2021/08/30 00:13:47;;;;;;;16.60;13.90;;;;;;;24.65;54.80;99977.25;1749049;80;21504;-47
2021/08/30 00:16:13;;;;;;;17.10;13.10;;;;;;;24.65;54.85;99976.44;1724049;81;20928;-48
2021/08/30 00:18:40;;;;;;;20.12;13.53;;;;;;;24.65;54.88;99971.68;1722079;81;21657;-47
2021/08/30 00:21:06;;;;;;;16.17;12.85;;;;;;;24.64;54.94;99967.86;1748672;81;21061;-48
2021/08/30 00:23:32;;;;;;;16.77;12.82;;;;;;;24.65;54.98;99964.73;1746069;80;21557;-47
2021/08/30 00:25:59;;;;;;;17.07;12.43;;;;;;;24.65;55.03;99955.58;1749747;80;21295;-48
2021/08/30 00:28:26;;;;;;;17.87;12.43;;;;;;;24.64;55.06;99955.35;1752561;80;21030;-46
2021/08/30 00:30:52;;;;;;;17.67;12.78;;;;;;;24.64;55.11;99953.95;1722937;81;21086;-46
2021/08/30 00:33:18;;;;;;;17.00;12.37;;;;;;;24.65;55.17;99955.58;1725512;81;21111;-46
2021/08/30 00:35:44;;;;;;;15.32;12.18;;;;;;;24.64;55.21;99956.74;1727792;81;21593;-46
2021/08/30 00:38:10;;;;;;;15.08;12.35;;;;;;;24.64;55.25;99963.11;1722484;82;23271;-46
2021/08/30 00:40:38;;;;;;;16.02;11.68;;;;;;;24.64;55.26;99953.95;1755437;80;21070;-45
2021/08/30 00:43:04;;;;;;;15.32;11.48;;;;;;;24.65;55.30;99954.19;1755722;80;21060;-47
2021/08/30 00:45:31;;;;;;;16.45;12.45;;;;;;;24.65;55.32;99958.36;1747656;80;21615;-45
2021/08/30 00:47:58;;;;;;;14.45;11.55;;;;;;;24.65;55.35;99961.14;1754376;80;21063;-46
2021/08/30 00:50:24;;;;;;;13.45;11.10;;;;;;;24.65;55.37;99962.53;1710695;82;21554;-46
2021/08/30 00:52:51;;;;;;;13.72;10.85;;;;;;;24.64;55.40;99962.30;1710530;82;21088;-45
2021/08/30 00:55:17;;;;;;;14.80;11.20;;;;;;;24.64;55.42;99972.03;1751150;80;21632;-48
2021/08/30 00:57:43;;;;;;;14.90;11.25;;;;;;;24.63;55.46;99971.23;1723168;81;21039;-46
2021/08/30 01:00:11;;;;;;;12.88;10.50;;;;;;;24.64;55.50;99966.47;1688270;83;21525;-46
2021/08/30 01:02:39;;;;;;;14.30;11.55;;;;;;;24.63;55.53;99963.47;1725277;81;22300;-45
2021/08/30 01:05:06;;;;;;;12.10;10.05;;;;;;;24.64;55.55;99969.25;1742060;80;21048;-47
2021/08/30 01:08:19;;;;;;;14.78;11.05;;;;;;;24.64;55.55;99966.47;1728666;81;21059;-45
2021/08/30 01:11:03;;;;;;;13.78;10.20;;;;;;;24.63;55.59;99974.01;1719825;81;21364;-46
2021/08/30 01:13:39;;;;;;;10.90;8.70;;;;;;;24.62;55.60;99970.19;1770190;79;21067;-46
2021/08/30 01:16:05;;;;;;;10.80;8.65;;;;;;;24.61;55.63;99965.82;1769576;80;21077;-45
2021/08/30 01:18:32;;;;;;;11.78;9.60;;;;;;;24.61;55.66;99967.21;1763552;79;21112;-47
2021/08/30 01:21:16;;;;;;;13.95;10.28;;;;;;;24.62;55.67;99968.80;1765382;80;21047;-46
2021/08/30 01:23:46;;;;;;;11.93;9.68;;;;;;;24.59;55.69;99960.61;1755366;80;20984;-46
2021/08/30 01:26:14;;;;;;;11.20;8.73;;;;;;;24.59;55.72;99970.34;1766189;80;21064;-45
2021/08/30 01:29:00;;;;;;;11.30;9.08;;;;;;;24.60;55.76;99978.11;1733794;81;23187;-48
2021/08/30 01:32:05;;;;;;;12.53;9.03;;;;;;;24.59;55.78;99982.86;1789466;78;21062;-47
2021/08/30 01:34:31;;;;;;;11.70;8.60;;;;;;;24.59;55.78;99974.52;1781143;78;21035;-45
2021/08/30 01:36:57;;;;;;;10.30;8.43;;;;;;;24.57;55.79;99977.66;1790269;79;21073;-48
2021/08/30 01:39:30;;;;;;;10.72;8.33;;;;;;;24.58;55.80;99982.64;1795387;78;21013;-46
2021/08/30 01:42:00;;;;;;;10.63;8.10;;;;;;;24.57;55.84;99986.00;1788815;78;21065;-46
2021/08/30 01:44:27;;;;;;;10.63;8.78;;;;;;;24.57;55.86;99987.39;1765416;79;21039;-45
2021/08/30 01:46:53;;;;;;;10.75;8.03;;;;;;;24.57;55.89;99986.00;1791301;78;21044;-47
2021/08/30 01:49:20;;;;;;;10.93;7.90;;;;;;;24.56;55.90;99988.58;1793280;78;21593;-46
2021/08/30 01:51:48;;;;;;;9.75;7.80;;;;;;;24.57;55.91;99987.39;1788318;78;21049;-49
2021/08/30 01:54:15;;;;;;;9.50;7.20;;;;;;;24.56;55.93;99988.58;1736861;78;22127;-46
2021/08/30 01:56:46;;;;;;;8.80;7.53;;;;;;;24.56;55.92;99988.58;1786980;78;21075;-45
2021/08/30 02:01:53;;;;;;;8.93;7.15;;;;;;;24.57;55.96;99998.52;1768446;78;21035;-46
2021/08/30 02:04:19;;;;;;;9.03;7.15;;;;;;;24.57;55.97;100001.30;1793092;78;20878;-48
2021/08/30 02:06:45;;;;;;;9.30;7.80;;;;;;;24.56;55.98;99996.92;1732042;81;21040;-46
2021/08/30 02:09:12;;;;;;;8.58;6.85;;;;;;;24.58;55.98;100000.71;1757579;79;21852;-46
2021/08/30 02:11:38;;;;;;;9.48;7.28;;;;;;;24.56;56.00;99996.92;1795134;78;20973;-48
2021/08/30 02:14:07;;;;;;;8.78;6.90;;;;;;;24.57;56.02;100001.30;1790490;78;21065;-46
2021/08/30 02:16:32;;;;;;;9.80;7.22;;;;;;;24.56;56.03;99988.58;1730211;81;21016;-46
2021/08/30 02:19:33;;;;;;;8.65;7.05;;;;;;;24.57;56.03;99996.31;1791023;78;20982;-45
2021/08/30 02:22:31;;;;;;;8.98;6.92;;;;;;;24.57;56.04;99996.31;1787237;78;21069;-46
2021/08/30 02:25:07;;;;;;;10.10;6.70;;;;;;;24.56;56.03;100003.06;1795089;78;21101;-45
2021/08/30 02:27:39;;;;;;;7.67;6.28;;;;;;;24.55;56.04;100002.26;1784634;78;21093;-45
2021/08/30 02:30:09;;;;;;;7.12;5.72;;;;;;;24.56;56.05;100014.19;1785276;78;21465;-47
2021/08/30 02:32:36;;;;;;;8.90;6.90;;;;;;;24.55;56.06;100011.98;1788556;78;21175;-49
2021/08/30 02:35:05;;;;;;;9.05;6.25;;;;;;;24.53;56.07;100010.14;1791405;78;21032;-47
2021/08/30 02:37:34;;;;;;;9.35;6.65;;;;;;;24.53;56.07;100004.58;1781217;78;21006;-45
2021/08/30 02:40:00;;;;;;;9.80;6.45;;;;;;;24.53;56.09;100012.92;1756368;79;21148;-47
2021/08/30 02:42:28;;;;;;;7.85;6.33;;;;;;;24.54;56.11;100022.89;1787404;78;21059;-46
2021/08/30 02:44:54;;;;;;;7.50;6.67;;;;;;;24.53;56.12;100016.28;1788174;78;21509;-46
2021/08/30 02:47:21;;;;;;;7.80;5.85;;;;;;;24.53;56.10;100017.67;1754547;78;21079;-45
2021/08/30 02:49:47;;;;;;;8.25;5.85;;;;;;;24.53;56.12;100012.11;1784663;78;21518;-48
2021/08/30 02:52:15;;;;;;;7.75;6.17;;;;;;;24.53;56.13;100013.50;1792860;78;20993;-45
2021/08/30 02:54:42;;;;;;;6.90;5.95;;;;;;;24.52;56.10;100019.67;1786669;78;21138;-51
2021/08/30 02:57:09;;;;;;;6.72;5.90;;;;;;;24.52;56.10;100023.85;1794355;78;21743;-46
2021/08/30 02:59:35;;;;;;;6.65;5.35;;;;;;;24.53;56.12;100044.91;1787847;78;21123;-44
2021/08/30 03:02:02;;;;;;;7.65;5.65;;;;;;;24.54;56.08;100041.55;1761298;79;21115;-47
2021/08/30 03:04:29;;;;;;;7.60;5.47;;;;;;;24.56;56.10;100040.61;1787925;78;21036;-45
2021/08/30 03:06:56;;;;;;;5.55;4.65;;;;;;;24.59;56.12;100037.09;1787695;78;21047;-47
2021/08/30 03:09:22;;;;;;;6.15;5.30;;;;;;;24.63;56.18;100047.71;1796243;78;21596;-47
2021/08/30 03:11:49;;;;;;;7.20;4.65;;;;;;;24.66;56.28;100043.39;1785812;78;21048;-47
2021/08/30 03:14:16;;;;;;;5.70;4.95;;;;;;;24.69;56.41;100049.05;1756954;79;21779;-48
2021/08/30 03:16:42;;;;;;;5.30;4.78;;;;;;;24.72;56.43;100048.32;1790578;78;21171;-48
2021/08/30 03:19:11;;;;;;;5.28;4.58;;;;;;;24.74;56.39;100051.53;1788442;78;21059;-48
2021/08/30 03:21:37;;;;;;;6.80;5.12;;;;;;;24.76;56.31;100049.20;1789404;78;21161;-49
2021/08/30 03:24:04;;;;;;;5.58;4.37;;;;;;;24.78;56.21;100051.63;1784976;78;20898;-48
2021/08/30 03:26:30;;;;;;;6.05;4.50;;;;;;;24.78;56.14;100038.50;1790061;78;21023;-48
2021/08/30 03:28:56;;;;;;;5.65;4.72;;;;;;;24.79;56.04;100054.61;1787267;78;22098;-48
2021/08/30 03:31:24;;;;;;;6.15;4.85;;;;;;;24.79;55.96;100049.05;1756270;79;21080;-47
2021/08/30 03:33:50;;;;;;;5.67;4.47;;;;;;;24.78;55.91;100057.98;1755430;78;21090;-49
2021/08/30 03:36:16;;;;;;;5.42;4.37;;;;;;;24.77;55.86;100062.53;1783748;78;21058;-47
2021/08/30 03:38:42;;;;;;;5.42;4.55;;;;;;;24.77;55.83;100073.66;1779608;79;21009;-47
2021/08/30 03:41:08;;;;;;;5.40;4.60;;;;;;;24.75;55.78;100067.05;1789488;78;21061;-46
2021/08/30 03:43:34;;;;;;;5.87;4.47;;;;;;;24.75;55.74;100069.03;1743527;79;21158;-47
2021/08/30 03:46:00;;;;;;;5.40;4.50;;;;;;;24.73;55.71;100069.41;1781901;78;21166;-46
2021/08/30 03:48:27;;;;;;;5.03;4.42;;;;;;;24.72;55.69;100073.36;1755924;78;20920;-50
2021/08/30 03:50:53;;;;;;;5.45;4.50;;;;;;;24.71;55.66;100076.48;1695925;81;21109;-46
2021/08/30 03:53:19;;;;;;;5.28;4.40;;;;;;;24.71;55.62;100077.87;1781710;78;20999;-48
2021/08/30 03:55:47;;;;;;;6.10;4.67;;;;;;;24.69;55.57;100083.83;1790526;78;21071;-45
2021/08/30 03:58:16;;;;;;;8.70;4.55;;;;;;;24.68;55.56;100082.78;1786087;78;21179;-46
2021/08/30 04:00:42;;;;;;;26.07;6.40;;;;;;;24.68;55.55;100081.39;1776479;78;21031;-47
2021/08/30 04:03:10;;;;;;;12.37;5.42;;;;;;;24.66;55.52;100087.31;1783774;78;21661;-46
2021/08/30 04:05:37;;;;;;;12.18;5.58;;;;;;;24.65;55.51;100086.30;1791534;78;21057;-47
2021/08/30 04:08:04;;;;;;;16.32;5.37;;;;;;;24.64;55.53;100083.29;1784140;78;21095;-49
2021/08/30 04:10:30;;;;;;;20.90;5.22;;;;;;;24.62;55.50;100086.42;1761637;78;21223;-47
2021/08/30 04:12:56;;;;;;;11.95;4.72;;;;;;;24.61;55.53;100087.62;1782795;78;21319;-50
2021/08/30 04:15:23;;;;;;;12.88;4.42;;;;;;;24.61;55.55;100086.23;1708165;81;21101;-47
2021/08/30 04:17:49;;;;;;;24.25;8.13;;;;;;;24.60;55.64;100077.66;1756135;80;21573;-52
2021/08/30 04:20:15;;;;;;;45.05;17.32;;;;;;;24.59;55.74;100087.16;1731659;81;21071;-56
2021/08/30 04:22:41;;;;;;;11.88;5.37;;;;;;;24.58;55.83;100083.56;1742847;80;21716;-53
2021/08/30 04:25:09;;;;;;;146.28;50.60;;;;;;;24.60;55.91;100088.78;1761532;79;21053;-53
2021/08/30 04:27:35;;;;;;;34.98;10.72;;;;;;;24.58;56.04;100090.52;1757584;80;21043;-55
2021/08/30 04:30:01;;;;;;;74.40;25.30;;;;;;;24.61;56.14;100089.01;1754039;80;21058;-55
2021/08/30 04:32:32;;;;;;;40.23;13.80;;;;;;;24.65;56.31;100091.87;1755292;80;21664;-52
2021/08/30 04:34:56;;;;;;;164.32;56.77;;;;;;;24.67;56.47;100084.76;1757042;80;22792;-55
2021/08/30 04:37:22;;;;;;;254.97;89.58;;;;;;;24.71;56.63;100093.18;1754524;80;21553;-46
2021/08/30 04:39:48;;;;;;;114.72;38.73;;;;;;;24.73;56.71;100092.25;1758591;80;21139;-47
2021/08/30 04:42:14;;;;;;;30.70;8.98;;;;;;;24.75;56.73;100092.67;1756162;79;21060;-47
2021/08/30 04:44:40;;;;;;;17.95;4.83;;;;;;;24.77;56.67;100091.16;1755919;80;20956;-48
2021/08/30 04:47:06;;;;;;;10.20;4.30;;;;;;;24.78;56.61;100096.92;1756990;79;22529;-48
2021/08/30 04:49:33;;;;;;;11.75;3.62;;;;;;;24.78;56.55;100103.10;1760084;80;21047;-47
2021/08/30 04:51:59;;;;;;;6.37;3.62;;;;;;;24.78;56.49;100097.53;1760635;79;21083;-49
2021/08/30 04:54:25;;;;;;;8.80;3.62;;;;;;;24.76;56.43;100096.50;1754834;80;21101;-46
2021/08/30 04:56:51;;;;;;;7.70;3.72;;;;;;;24.75;56.37;100106.59;1757444;80;21045;-47
2021/08/30 04:59:17;;;;;;;9.38;3.50;;;;;;;24.74;56.32;100105.77;1751934;79;21834;-47
2021/08/30 05:01:43;;;;;;;7.70;3.45;;;;;;;24.73;56.28;100108.36;1756578;79;21097;-48
2021/08/30 05:04:09;;;;;;;1005.27;409.35;;;;;;;24.71;56.23;100116.25;1758665;80;20924;-50
2021/08/30 05:06:35;;;;;;;195.38;57.27;;;;;;;24.70;56.21;100116.02;1730128;81;21989;-50
2021/08/30 05:09:01;;;;;;;387.25;117.13;;;;;;;24.70;56.20;100115.20;1738612;80;21130;-47
2021/08/30 05:11:27;;;;;;;106.92;31.07;;;;;;;24.67;56.19;100109.80;1718760;81;21088;-49
2021/08/30 05:13:53;;;;;;;436.52;134.90;;;;;;;24.67;56.19;100115.94;1721159;81;21037;-50
2021/08/30 05:16:19;;;;;;;126.35;34.98;;;;;;;24.65;56.19;100107.97;1725333;81;21015;-47
2021/08/30 05:18:45;;;;;;;45.15;13.15;;;;;;;24.64;56.15;100113.30;1728862;81;21364;-47
2021/08/30 05:21:12;;;;;;;24.87;8.03;;;;;;;24.63;56.19;100117.25;1732223;81;21100;-48
2021/08/30 05:23:38;;;;;;;18.42;6.95;;;;;;;24.63;56.19;100116.44;1749497;80;21241;-48
2021/08/30 05:26:04;;;;;;;22.32;6.65;;;;;;;24.62;56.21;100118.99;1756508;80;21742;-47
2021/08/30 05:28:30;;;;;;;14.98;6.45;;;;;;;24.61;56.24;100117.40;1757820;80;20893;-48
2021/08/30 05:30:56;;;;;;;17.60;5.67;;;;;;;24.59;56.25;100113.58;1761803;80;21079;-47
2021/08/30 05:33:22;;;;;;;15.75;6.05;;;;;;;24.60;56.29;100119.95;1754188;80;21103;-48
2021/08/30 05:35:48;;;;;;;12.33;5.00;;;;;;;24.58;56.31;100118.33;1754719;80;21649;-48
2021/08/30 05:38:14;;;;;;;14.78;5.67;;;;;;;24.57;56.33;100123.66;1754562;80;20919;-47
2021/08/30 05:40:40;;;;;;;13.10;4.87;;;;;;;24.57;56.34;100118.09;1760978;80;21041;-47
2021/08/30 05:43:07;;;;;;;13.83;5.35;;;;;;;24.56;56.38;100113.73;1757971;80;21097;-48
2021/08/30 05:45:33;;;;;;;12.65;4.78;;;;;;;24.55;56.40;100114.89;1763061;80;21030;-48
2021/08/30 05:48:00;;;;;;;19.02;5.00;;;;;;;24.55;56.41;100112.69;1758795;80;21052;-47
2021/08/30 05:50:26;;;;;;;12.03;5.00;;;;;;;24.54;56.41;100117.44;1754939;80;21051;-48
2021/08/30 05:52:52;;;;;;;14.28;5.40;;;;;;;24.53;56.42;100117.79;1754543;80;21466;-48
2021/08/30 05:55:19;;;;;;;10.18;4.83;;;;;;;24.52;56.42;100117.02;1762940;80;21017;-49
2021/08/30 05:57:46;;;;;;;11.75;4.90;;;;;;;24.52;56.44;100114.81;1752416;80;21580;-47
2021/08/30 06:00:14;;;;;;;10.05;4.58;;;;;;;24.51;56.44;100115.97;1758911;80;23191;-48
2021/08/30 06:02:40;;;;;;;12.23;4.45;;;;;;;24.51;56.46;100117.36;1765465;80;21478;-48
2021/08/30 06:05:08;;;;;;;11.63;4.53;;;;;;;24.50;56.47;100119.33;1756643;80;21065;-49
2021/08/30 06:07:34;;;;;;;10.40;4.70;;;;;;;24.49;56.45;100126.05;1747968;80;21017;-47
2021/08/30 06:10:00;;;;;;;10.50;4.15;;;;;;;24.49;56.45;100125.23;1757360;80;20925;-47
2021/08/30 06:12:26;;;;;;;10.23;4.45;;;;;;;24.48;56.46;100126.43;1752100;80;21215;-46
2021/08/30 06:14:52;;;;;;;8.55;4.17;;;;;;;24.47;56.46;100127.01;1781890;78;21671;-47
2021/08/30 06:17:18;;;;;;;10.63;4.40;;;;;;;24.48;56.45;100130.60;1787815;78;20997;-47
2021/08/30 06:19:44;;;;;;;9.75;4.05;;;;;;;24.48;56.45;100130.60;1788074;78;21484;-47
2021/08/30 06:22:10;;;;;;;7.28;4.08;;;;;;;24.47;56.45;100131.77;1785583;78;21073;-47
2021/08/30 06:24:47;;;;;;;8.50;4.00;;;;;;;24.47;56.45;100135.93;1787920;78;21144;-47
2021/08/30 06:27:10;;;;;;;9.68;3.72;;;;;;;24.45;56.45;100129.33;1785592;78;21032;-47
2021/08/30 06:29:36;;;;;;;7.05;3.47;;;;;;;24.44;56.43;100133.27;1795302;78;21449;-47
2021/08/30 06:32:05;;;;;;;7.72;4.22;;;;;;;24.43;56.42;100131.67;1790985;78;22003;-47
2021/08/30 06:34:31;;;;;;;6.97;3.72;;;;;;;24.44;56.42;100133.88;1790176;78;21488;-48
2021/08/30 06:36:57;;;;;;;10.20;4.08;;;;;;;24.44;56.41;100138.83;1785469;78;21216;-48
2021/08/30 06:39:23;;;;;;;7.72;3.85;;;;;;;24.44;56.41;100145.00;1789390;78;20952;-48
2021/08/30 06:41:49;;;;;;;7.85;3.70;;;;;;;24.44;56.40;100149.17;1798299;78;21044;-47
2021/08/30 06:44:15;;;;;;;7.00;3.65;;;;;;;24.44;56.40;100155.52;1784552;78;20893;-48
2021/08/30 06:46:41;;;;;;;9.73;3.40;;;;;;;24.44;56.37;100158.91;1797099;78;21516;-47
2021/08/30 06:49:07;;;;;;;7.50;3.45;;;;;;;24.43;56.37;100160.06;1779111;78;21502;-47
2021/08/30 06:51:34;;;;;;;9.38;3.58;;;;;;;24.42;56.37;100157.05;1783399;78;21664;-48
2021/08/30 06:54:00;;;;;;;5.12;3.25;;;;;;;24.42;56.34;100159.25;1789728;78;21031;-48
2021/08/30 06:56:26;;;;;;;6.30;2.90;;;;;;;24.41;56.35;100166.55;1800038;78;20881;-47
2021/08/30 06:58:52;;;;;;;5.05;3.00;;;;;;;24.41;56.32;100170.72;1785209;78;21082;-48
2021/08/30 07:01:18;;;;;;;7.50;3.20;;;;;;;24.42;56.33;100175.94;1789357;78;21168;-46
2021/08/30 07:03:44;;;;;;;5.87;3.10;;;;;;;24.40;56.31;100181.03;1791817;78;21657;-50
2021/08/30 07:06:10;;;;;;;5.72;3.00;;;;;;;24.41;56.29;100185.44;1792672;79;20932;-47
2021/08/30 07:08:36;;;;;;;5.40;3.55;;;;;;;24.40;56.28;100181.64;1753450;80;21098;-48
2021/08/30 07:11:02;;;;;;;5.08;3.00;;;;;;;24.40;56.24;100189.37;1767079;80;21071;-46
2021/08/30 07:13:29;;;;;;;6.75;3.40;;;;;;;24.40;56.24;100196.33;1733608;81;21577;-47
2021/08/30 07:15:55;;;;;;;4.42;3.08;;;;;;;24.42;56.23;100201.54;1749546;81;21513;-47
2021/08/30 07:18:21;;;;;;;3.87;2.58;;;;;;;24.41;56.23;100195.75;1731986;81;21073;-48
2021/08/30 07:20:48;;;;;;;3.87;2.50;;;;;;;24.41;56.21;100198.53;1741283;81;20918;-50
2021/08/30 07:23:15;;;;;;;3.75;2.72;;;;;;;24.39;56.19;100183.61;1746800;80;21115;-50
2021/08/30 07:25:41;;;;;;;4.28;2.70;;;;;;;24.40;56.17;100200.50;1741851;80;21076;-47
2021/08/30 07:28:07;;;;;;;4.45;2.40;;;;;;;24.39;56.15;100204.47;1748486;80;20919;-48
2021/08/30 07:30:33;;;;;;;4.37;2.42;;;;;;;24.38;56.09;100201.45;1751587;80;21075;-47
2021/08/30 07:33:00;;;;;;;4.33;2.55;;;;;;;24.40;56.07;100196.33;1751351;80;21018;-47
2021/08/30 07:35:27;;;;;;;4.08;2.50;;;;;;;24.39;56.02;100200.88;1746279;81;21008;-47
2021/08/30 07:37:54;;;;;;;8.80;3.10;;;;;;;24.39;55.95;100196.70;1754387;80;23233;-47
2021/08/30 07:40:21;;;;;;;4.15;3.00;;;;;;;24.38;55.88;100195.89;1745883;80;22184;-47
2021/08/30 07:42:47;;;;;;;5.97;2.95;;;;;;;24.38;55.82;100199.25;1746357;80;21090;-48
2021/08/30 07:45:13;;;;;;;4.35;2.67;;;;;;;24.38;55.77;100197.28;1750150;80;21579;-47
2021/08/30 07:47:42;;;;;;;4.67;2.67;;;;;;;24.38;55.69;100203.42;1743678;80;22341;-47
2021/08/30 07:50:10;;;;;;;3.55;2.40;;;;;;;24.37;55.66;100202.61;1752771;80;21105;-51
2021/08/30 07:52:36;;;;;;;4.28;2.52;;;;;;;24.38;55.60;100204.81;1748921;80;21086;-49
2021/08/30 07:55:04;;;;;;;3.80;2.40;;;;;;;24.36;55.55;100206.55;1746086;80;21623;-47
2021/08/30 07:57:31;;;;;;;4.15;2.77;;;;;;;24.36;55.48;100212.11;1758492;80;21091;-47
2021/08/30 07:59:57;;;;;;;4.65;2.77;;;;;;;24.35;55.45;100214.69;1754641;80;21103;-51
2021/08/30 08:02:23;;;;;;;2.75;2.40;;;;;;;24.36;55.39;100215.47;1769466;80;21290;-47
2021/08/30 08:04:49;;;;;;;4.67;2.45;;;;;;;24.35;55.35;100216.66;1751001;81;21048;-50
2021/08/30 08:07:15;;;;;;;4.50;2.52;;;;;;;24.35;55.29;100208.31;1744545;80;21485;-47
2021/08/30 08:09:41;;;;;;;3.58;2.65;;;;;;;24.36;55.26;100211.30;1745668;80;21618;-47
2021/08/30 08:12:08;;;;;;;4.30;2.47;;;;;;;24.35;55.19;100206.34;1761333;80;21562;-48
2021/08/30 08:14:34;;;;;;;3.70;2.70;;;;;;;24.34;55.14;100211.67;1763835;79;21490;-47
2021/08/30 08:17:01;;;;;;;6.60;2.92;;;;;;;24.35;55.11;100215.27;1754152;80;21090;-48
2021/08/30 08:19:27;;;;;;;3.47;2.60;;;;;;;24.35;55.05;100206.92;1755955;80;21057;-49
2021/08/30 08:21:55;;;;;;;3.77;2.75;;;;;;;24.35;55.01;100210.52;1758787;79;21118;-48
2021/08/30 08:24:24;;;;;;;4.12;2.60;;;;;;;24.35;54.98;100213.30;1760014;79;22193;-47
2021/08/30 08:26:51;;;;;;;3.98;2.65;;;;;;;24.35;54.93;100211.09;1758658;80;21931;-48
2021/08/30 08:29:17;;;;;;;4.12;2.90;;;;;;;24.34;54.89;100210.86;1760014;80;22218;-47
2021/08/30 08:31:43;;;;;;;2.83;2.50;;;;;;;24.34;54.85;100207.50;1759464;80;21431;-47
2021/08/30 08:34:09;;;;;;;4.10;2.80;;;;;;;24.33;54.80;100205.88;1755757;80;21120;-50
2021/08/30 08:36:38;;;;;;;2.98;2.47;;;;;;;24.34;54.77;100203.34;1757315;80;21520;-48
2021/08/30 08:39:04;;;;;;;3.12;2.70;;;;;;;24.34;54.73;100199.16;1757646;79;21677;-46
2021/08/30 08:41:30;;;;;;;4.72;2.85;;;;;;;24.34;54.68;100203.34;1755850;80;21045;-49
2021/08/30 08:43:56;;;;;;;4.87;3.00;;;;;;;24.34;54.66;100203.91;1758262;79;20909;-47
2021/08/30 08:46:23;;;;;;;4.50;2.80;;;;;;;24.34;54.62;100218.62;1754647;80;21882;-51
2021/08/30 08:48:49;;;;;;;4.05;2.65;;;;;;;24.34;54.55;100207.50;1756977;80;21107;-47
2021/08/30 08:51:16;;;;;;;2.90;2.60;;;;;;;24.34;54.53;100202.52;1758665;79;21017;-48
2021/08/30 08:53:45;;;;;;;3.42;3.12;;;;;;;24.35;54.47;100210.52;1758760;80;21038;-47
2021/08/30 08:56:16;;;;;;;3.70;2.37;;;;;;;24.35;54.44;100216.66;1760446;80;20964;-49
2021/08/30 08:58:42;;;;;;;3.35;2.80;;;;;;;24.34;54.38;100214.45;1759276;80;21075;-48
2021/08/30 09:01:12;;;;;;;3.05;2.75;;;;;;;24.34;54.33;100217.81;1766387;79;21052;-48
2021/08/30 09:03:53;;;;;;;3.02;2.47;;;;;;;24.34;54.28;100213.06;1756339;80;21050;-47
2021/08/30 09:06:30;;;;;;;2.90;2.58;;;;;;;24.35;54.26;100225.00;1756565;80;21775;-49
2021/08/30 09:09:03;;;;;;;4.28;2.50;;;;;;;24.34;54.19;100226.97;1757096;80;21052;-51
2021/08/30 09:11:39;;;;;;;5.83;3.20;;;;;;;24.34;54.12;100229.75;1779267;78;21167;-48
2021/08/30 09:14:16;;;;;;;5.55;2.83;;;;;;;24.35;54.06;100214.69;1784985;79;21106;-50
2021/08/30 09:16:42;;;;;;;3.67;2.72;;;;;;;24.35;53.99;100231.38;1775534;78;21188;-50
2021/08/30 09:19:10;;;;;;;3.70;2.80;;;;;;;24.37;53.87;100219.87;1752505;80;21012;-48
2021/08/30 09:21:42;;;;;;;2.95;2.65;;;;;;;24.37;53.83;100229.61;1757216;80;21550;-47
2021/08/30 09:24:15;;;;;;;3.75;3.08;;;;;;;24.38;53.77;100224.27;1752556;79;21119;-48
2021/08/30 09:26:45;;;;;;;4.40;3.10;;;;;;;24.38;53.72;100222.31;1756857;80;21012;-50
2021/08/30 09:29:20;;;;;;;3.85;2.52;;;;;;;24.37;53.70;100222.08;1771985;80;21134;-51
2021/08/30 09:32:06;;;;;;;4.75;2.80;;;;;;;24.38;53.65;100220.91;1755846;80;21036;-47
2021/08/30 09:34:57;;;;;;;4.05;3.00;;;;;;;24.39;53.62;100224.51;1753010;80;21069;-47
2021/08/30 09:37:26;;;;;;;3.20;2.77;;;;;;;24.38;53.57;100226.48;1768492;80;21500;-49
2021/08/30 09:39:56;;;;;;;3.62;2.67;;;;;;;24.38;53.54;100225.09;1730714;81;21036;-48
2021/08/30 09:42:23;;;;;;;2.77;2.47;;;;;;;24.38;53.53;100222.31;1735445;81;21444;-48
2021/08/30 09:44:49;;;;;;;5.33;3.00;;;;;;;24.39;53.50;100223.12;1730707;82;21230;-48
2021/08/30 09:47:19;;;;;;;2.90;2.60;;;;;;;24.39;53.45;100220.34;1794296;78;21035;-48
2021/08/30 09:49:52;;;;;;;3.85;2.60;;;;;;;24.38;53.44;100218.13;1747835;80;21099;-48
2021/08/30 09:52:21;;;;;;;4.80;2.80;;;;;;;24.39;53.42;100222.54;1793168;78;21117;-47
2021/08/30 09:54:48;;;;;;;3.22;2.30;;;;;;;24.39;53.40;100218.37;1791479;78;21072;-47
2021/08/30 09:57:14;;;;;;;3.15;2.70;;;;;;;24.41;53.36;100220.77;1793777;78;21129;-47
2021/08/30 09:59:44;;;;;;;3.83;2.50;;;;;;;24.41;53.35;100226.33;1782875;79;21010;-47
2021/08/30 10:02:14;;;;;;;3.22;2.65;;;;;;;24.42;53.36;100221.00;1797460;78;21013;-47
2021/08/30 10:04:40;;;;;;;3.20;2.70;;;;;;;24.43;53.34;100226.80;1794159;78;21463;-47
2021/08/30 10:07:07;;;;;;;3.42;2.40;;;;;;;24.43;53.33;100222.05;1789379;78;23164;-48
2021/08/30 10:09:34;;;;;;;3.35;2.75;;;;;;;24.45;53.32;100228.62;1796632;79;21047;-50
2021/08/30 10:12:00;;;;;;;4.40;2.60;;;;;;;24.44;53.32;100215.91;1794289;78;21024;-48
2021/08/30 10:14:28;;;;;;;3.02;2.52;;;;;;;24.46;53.33;100218.55;1789968;78;21563;-47
2021/08/30 10:16:56;;;;;;;4.67;2.62;;;;;;;24.47;53.32;100224.91;1786679;79;21124;-47
2021/08/30 10:19:35;;;;;;;3.45;2.87;;;;;;;24.48;53.31;100221.79;1786223;78;21112;-47
2021/08/30 10:22:16;;;;;;;3.17;2.72;;;;;;;24.48;53.33;100220.40;1725050;81;21198;-49
2021/08/30 10:24:43;;;;;;;4.05;3.00;;;;;;;24.50;53.32;100222.22;1727585;80;21546;-49
2021/08/30 10:27:10;;;;;;;2.87;2.55;;;;;;;24.52;53.33;100228.83;1758980;80;21073;-49
2021/08/30 10:29:40;;;;;;;2.95;2.65;;;;;;;24.52;53.36;100224.08;1765802;79;20909;-49
2021/08/30 10:32:11;;;;;;;;;;;;;;;24.54;53.33;100227.88;1773729;79;21161;-48
2021/08/30 10:34:39;;;;;;;3.22;2.52;;;;;;;24.55;53.36;100224.74;1766505;79;20365;-50
2021/08/30 10:37:09;;;;;;;4.53;2.70;;;;;;;24.54;53.39;100222.31;1770190;79;22362;-49
2021/08/30 10:39:43;;;;;;;3.17;2.58;;;;;;;24.57;53.39;100222.97;1718888;80;21026;-49
2021/08/30 10:42:15;;;;;;;3.47;2.52;;;;;;;24.59;53.40;100227.61;1764631;79;21484;-49
2021/08/30 10:45:03;;;;;;;3.08;2.75;;;;;;;24.60;53.40;100229.81;1741859;80;23273;-48
2021/08/30 10:47:37;;;;;;;3.37;3.08;;;;;;;24.63;53.40;100231.87;1750944;79;21041;-49
2021/08/30 10:50:06;;;;;;;3.15;2.85;;;;;;;24.64;53.43;100225.14;1786960;78;21060;-48
2021/08/30 10:52:40;;;;;;;3.52;2.83;;;;;;;24.66;53.42;100235.31;1793366;78;21089;-50
2021/08/30 10:55:19;;;;;;;4.33;3.20;;;;;;;24.67;53.42;100225.81;1782844;78;21068;-49
2021/08/30 10:57:52;;;;;;;3.00;2.70;;;;;;;24.69;53.44;100227.66;1792581;79;23299;-48
2021/08/30 11:00:31;;;;;;;3.20;2.67;;;;;;;24.70;53.44;100218.94;1792770;78;20974;-48
2021/08/30 11:02:58;;;;;;;3.17;2.87;;;;;;;24.72;53.46;100227.75;1794045;78;20971;-49
2021/08/30 11:05:26;;;;;;;3.12;2.40;;;;;;;24.74;53.46;100228.18;1801509;78;21851;-50
2021/08/30 11:07:52;;;;;;;3.52;2.87;;;;;;;24.76;53.46;100224.47;1791837;78;21046;-50
2021/08/30 11:10:19;;;;;;;3.87;3.22;;;;;;;24.77;53.48;100226.67;1784840;78;21295;-51
2021/08/30 11:12:46;;;;;;;3.42;2.98;;;;;;;24.79;53.48;100225.72;1775315;78;21387;-50
2021/08/30 11:15:12;;;;;;;3.05;2.55;;;;;;;24.81;53.48;100224.20;1760512;78;21034;-52
2021/08/30 11:17:38;;;;;;;3.40;2.85;;;;;;;24.83;53.48;100221.04;1765548;78;21122;-50
2021/08/30 11:20:06;;;;;;;3.62;2.90;;;;;;;24.85;53.46;100232.08;1756493;78;21517;-48
2021/08/30 11:22:32;;;;;;;3.50;2.87;;;;;;;24.86;53.46;100233.70;1782473;78;21342;-49
2021/08/30 11:24:59;;;;;;;3.47;3.00;;;;;;;24.89;53.46;100223.23;1756891;78;21568;-49
2021/08/30 11:27:29;;;;;;;3.95;2.80;;;;;;;24.92;53.43;100232.83;1761453;78;21503;-48
2021/08/30 11:29:59;;;;;;;3.72;2.90;;;;;;;24.93;53.40;100219.14;1792803;78;21070;-50